createdAt,value
2018-12-14T00:01:10.182Z,16.25
2018-12-14T00:03:40.217Z,15.68
2018-12-14T00:06:10.243Z,15.63
2018-12-14T00:08:38.182Z,12.98
2018-12-14T00:11:06.147Z,15.63
2018-12-14T00:13:34.167Z,16.00
2018-12-14T00:16:02.076Z,13.03
2018-12-14T00:18:30.017Z,15.05
2018-12-14T00:20:57.964Z,14.73
2018-12-14T00:23:25.878Z,13.62
2018-12-14T00:25:54.185Z,13.38
2018-12-14T00:28:22.111Z,15.00
2018-12-14T00:30:50.068Z,13.72
2018-12-14T00:33:18.061Z,12.45
2018-12-14T00:35:46.149Z,12.90
2018-12-14T00:38:14.053Z,14.30
2018-12-14T00:40:41.989Z,13.70
2018-12-14T00:43:09.920Z,14.03
2018-12-14T00:45:37.898Z,15.20
2018-12-14T00:48:05.828Z,13.93
2018-12-14T00:50:33.793Z,13.15
2018-12-14T00:53:01.739Z,14.33
2018-12-14T00:55:29.702Z,14.43
2018-12-14T00:57:57.644Z,12.98
2018-12-14T01:00:25.622Z,13.45
2018-12-14T01:02:53.573Z,13.50
2018-12-14T01:05:21.521Z,15.38
2018-12-14T01:07:56.111Z,14.50
2018-12-14T01:10:24.057Z,14.55
2018-12-14T01:12:52.058Z,14.55
2018-12-14T01:15:20.019Z,15.70
2018-12-14T01:17:47.957Z,13.50
2018-12-14T01:20:15.888Z,14.98
2018-12-14T01:22:43.853Z,15.13
2018-12-14T01:25:11.824Z,14.58
2018-12-14T01:27:39.798Z,13.80
2018-12-14T01:30:07.918Z,15.15
2018-12-14T01:32:35.879Z,15.00
2018-12-14T01:35:03.901Z,13.88
2018-12-14T01:37:31.851Z,14.87
2018-12-14T01:39:59.783Z,15.43
2018-12-14T01:42:27.743Z,13.25
2018-12-14T01:44:55.721Z,13.50
2018-12-14T01:47:24.815Z,14.05
2018-12-14T01:49:52.725Z,12.95
2018-12-14T01:52:21.747Z,14.85
2018-12-14T01:54:49.812Z,15.68
2018-12-14T01:57:17.896Z,13.48
2018-12-14T01:59:45.924Z,16.25
2018-12-14T02:02:14.892Z,14.10
2018-12-14T02:04:42.859Z,14.13
2018-12-14T02:07:10.798Z,16.30
2018-12-14T02:09:38.745Z,15.68
2018-12-14T02:12:11.279Z,15.70
2018-12-14T02:14:37.752Z,13.60
2018-12-14T02:17:05.674Z,14.35
2018-12-14T02:19:33.623Z,13.98
2018-12-14T02:22:01.585Z,14.90
2018-12-14T02:24:29.525Z,15.25
2018-12-14T02:26:57.447Z,14.25
2018-12-14T02:29:25.409Z,15.75
2018-12-14T02:31:53.429Z,15.00
2018-12-14T02:34:21.375Z,13.48
2018-12-14T02:36:49.455Z,14.33
2018-12-14T02:39:17.400Z,15.40
2018-12-14T02:41:45.316Z,15.08
2018-12-14T02:44:13.278Z,15.60
2018-12-14T02:46:41.301Z,16.27
2018-12-14T02:49:09.244Z,14.87
2018-12-14T02:51:37.474Z,14.45
2018-12-14T02:54:05.391Z,15.25
2018-12-14T02:56:33.336Z,17.17
2018-12-14T02:59:01.258Z,15.85
2018-12-14T03:01:29.177Z,16.27
2018-12-14T03:03:57.180Z,15.98
2018-12-14T03:06:25.125Z,16.45
2018-12-14T03:08:53.046Z,15.85
2018-12-14T03:11:21.005Z,13.72
2018-12-14T03:13:48.925Z,15.25
2018-12-14T03:16:16.854Z,14.47
2018-12-14T03:18:44.809Z,14.87
2018-12-14T03:21:12.813Z,15.58
2018-12-14T03:23:40.740Z,16.00
2018-12-14T03:26:15.886Z,15.88
2018-12-14T03:28:43.925Z,14.68
2018-12-14T03:31:11.884Z,15.63
2018-12-14T03:33:39.826Z,15.63
2018-12-14T03:36:07.858Z,15.95
2018-12-14T03:38:35.797Z,15.95
2018-12-14T03:41:03.748Z,14.65
2018-12-14T03:43:31.674Z,13.95
2018-12-14T03:45:59.631Z,15.58
2018-12-14T03:48:27.548Z,13.38
2018-12-14T03:50:55.450Z,15.18
2018-12-14T03:53:23.401Z,14.30
2018-12-14T03:55:51.353Z,14.87
2018-12-14T03:58:19.282Z,15.70
2018-12-14T04:00:47.229Z,15.90
2018-12-14T04:03:15.219Z,15.28
2018-12-14T04:05:43.179Z,15.55
2018-12-14T04:08:11.169Z,16.73
2018-12-14T04:10:39.146Z,16.40
2018-12-14T04:13:07.091Z,16.52
2018-12-14T04:15:35.152Z,17.10
2018-12-14T04:18:03.140Z,15.80
2018-12-14T04:20:31.060Z,15.93
2018-12-14T04:22:59.010Z,17.73
2018-12-14T04:25:26.916Z,16.27
2018-12-14T04:27:54.835Z,17.73
2018-12-14T04:30:22.793Z,17.73
2018-12-14T04:32:50.728Z,19.17
2018-12-14T04:35:18.712Z,18.82
2018-12-14T04:37:46.893Z,20.05
2018-12-14T04:40:14.869Z,19.60
2018-12-14T04:42:48.888Z,19.27
2018-12-14T04:45:13.061Z,17.95
2018-12-14T04:47:41.024Z,18.25
2018-12-14T04:50:10.496Z,19.70
2018-12-14T04:52:38.663Z,20.30
2018-12-14T04:55:06.724Z,21.00
2018-12-14T04:57:34.673Z,20.65
2018-12-14T05:00:02.742Z,19.27
2018-12-14T05:02:30.766Z,20.82
2018-12-14T05:04:58.689Z,21.15
2018-12-14T05:07:26.629Z,20.52
2018-12-14T05:09:54.563Z,22.10
2018-12-14T05:12:22.503Z,19.73
2018-12-14T05:14:50.646Z,22.27
2018-12-14T05:17:18.619Z,21.82
2018-12-14T05:19:46.546Z,21.60
2018-12-14T05:22:14.467Z,23.30
2018-12-14T05:24:42.383Z,22.30
2018-12-14T05:27:10.350Z,20.80
2018-12-14T05:29:38.305Z,20.97
2018-12-14T05:32:06.319Z,22.45
2018-12-14T05:34:34.272Z,23.02
2018-12-14T05:37:02.196Z,20.88
2018-12-14T05:39:30.145Z,20.32
2018-12-14T05:41:58.065Z,18.92
2018-12-14T05:44:25.995Z,20.50
2018-12-14T05:46:53.943Z,19.25
2018-12-14T05:49:21.912Z,21.25
2018-12-14T05:51:49.827Z,21.35
2018-12-14T05:54:17.806Z,20.43
2018-12-14T05:56:45.885Z,21.97
2018-12-14T05:59:13.878Z,21.02
2018-12-14T06:01:41.810Z,20.15
2018-12-14T06:04:09.934Z,22.55
2018-12-14T06:06:38.039Z,20.10
2018-12-14T06:09:06.227Z,20.90
2018-12-14T06:11:35.381Z,21.50
2018-12-14T06:14:03.310Z,22.75
2018-12-14T06:16:31.258Z,22.35
2018-12-14T06:18:59.199Z,23.18
2018-12-14T06:21:27.137Z,20.48
2018-12-14T06:23:55.070Z,22.40
2018-12-14T06:26:23.015Z,20.75
2018-12-14T06:28:51.000Z,19.85
2018-12-14T06:31:18.965Z,20.25
2018-12-14T06:33:46.908Z,21.77
2018-12-14T06:36:14.879Z,21.17
2018-12-14T06:38:42.905Z,22.02
2018-12-14T06:41:10.810Z,20.82
2018-12-14T06:43:38.760Z,19.32
2018-12-14T06:46:06.705Z,20.50
2018-12-14T06:48:34.780Z,17.42
2018-12-14T06:51:03.113Z,20.32
2018-12-14T06:53:32.105Z,19.48
2018-12-14T06:56:00.018Z,21.30
2018-12-14T06:58:27.965Z,21.25
2018-12-14T07:00:55.960Z,18.30
2018-12-14T07:03:23.964Z,19.67
2018-12-14T07:05:51.913Z,16.20
2018-12-14T07:08:19.871Z,18.85
2018-12-14T07:10:47.855Z,16.55
2018-12-14T07:13:21.733Z,19.20
2018-12-14T07:15:45.834Z,18.90
2018-12-14T07:18:13.782Z,17.45
2018-12-14T07:20:41.983Z,16.20
2018-12-14T07:23:09.912Z,18.32
2018-12-14T07:25:37.833Z,18.90
2018-12-14T07:28:05.774Z,17.52
2018-12-14T07:30:33.730Z,18.52
2018-12-14T07:33:02.144Z,20.15
2018-12-14T07:35:30.153Z,20.02
2018-12-14T07:37:58.112Z,18.70
2018-12-14T07:40:26.101Z,17.73
2018-12-14T07:42:54.083Z,17.12
2018-12-14T07:45:22.086Z,18.95
2018-12-14T07:47:50.041Z,16.37
2018-12-14T07:50:18.014Z,16.55
2018-12-14T07:52:45.988Z,17.73
2018-12-14T07:55:14.868Z,15.32
2018-12-14T07:57:42.820Z,19.00
2018-12-14T08:00:10.762Z,16.60
2018-12-14T08:02:39.874Z,16.10
2018-12-14T08:05:07.839Z,15.45
2018-12-14T08:07:35.837Z,16.77
2018-12-14T08:10:04.048Z,16.77
2018-12-14T08:12:31.999Z,17.48
2018-12-14T08:15:00.227Z,16.23
2018-12-14T08:17:28.184Z,17.55
2018-12-14T08:19:56.155Z,17.90
2018-12-14T08:22:24.084Z,15.90
2018-12-14T08:24:52.035Z,17.35
2018-12-14T08:27:19.995Z,16.50
2018-12-14T08:29:47.969Z,15.88
2018-12-14T08:32:15.906Z,14.45
2018-12-14T08:34:43.816Z,16.17
2018-12-14T08:37:11.797Z,16.52
2018-12-14T08:39:39.735Z,15.95
2018-12-14T08:42:07.677Z,16.85
2018-12-14T08:44:35.611Z,15.48
2018-12-14T08:47:03.669Z,15.38
2018-12-14T08:49:31.664Z,15.35
2018-12-14T08:51:59.590Z,16.02
2018-12-14T08:54:27.576Z,16.45
2018-12-14T08:56:55.516Z,17.90
2018-12-14T08:59:23.460Z,16.17
2018-12-14T09:01:51.404Z,18.25
2018-12-14T09:04:19.343Z,16.15
2018-12-14T09:06:47.276Z,17.30
2018-12-14T09:09:15.187Z,15.78
2018-12-14T09:11:43.133Z,16.82
2018-12-14T09:14:11.082Z,17.07
2018-12-14T09:16:39.017Z,14.18
2018-12-14T09:19:07.213Z,14.93
2018-12-14T09:21:35.166Z,16.85
2018-12-14T09:24:03.133Z,16.05
2018-12-14T09:26:31.091Z,16.52
2018-12-14T09:28:59.497Z,16.62
2018-12-14T09:31:28.025Z,16.10
2018-12-14T09:33:55.971Z,16.05
2018-12-14T09:36:23.917Z,14.45
2018-12-14T09:38:51.943Z,14.13
2018-12-14T09:41:19.911Z,14.18
2018-12-14T09:43:54.156Z,15.30
2018-12-14T09:46:17.895Z,15.75
2018-12-14T09:48:45.855Z,15.68
2018-12-14T09:51:13.858Z,13.32
2018-12-14T09:53:41.842Z,16.30
2018-12-14T09:56:09.762Z,15.18
2018-12-14T09:58:37.681Z,15.70
2018-12-14T10:01:05.787Z,16.77
2018-12-14T10:03:33.981Z,14.93
2018-12-14T10:06:01.925Z,16.02
2018-12-14T10:08:29.868Z,16.32
2018-12-14T10:10:58.093Z,16.95
2018-12-14T10:13:26.114Z,17.67
2018-12-14T10:15:54.425Z,16.60
2018-12-14T10:18:22.390Z,16.42
2018-12-14T10:20:50.371Z,16.90
2018-12-14T10:23:18.317Z,18.23
2018-12-14T10:25:46.381Z,18.07
2018-12-14T10:28:14.492Z,17.30
2018-12-14T10:30:42.403Z,18.25
2018-12-14T10:33:10.412Z,19.27
2018-12-14T10:35:38.350Z,20.97
2018-12-14T10:38:06.306Z,19.42
2018-12-14T10:40:34.542Z,17.45
2018-12-14T10:43:02.482Z,17.35
2018-12-14T10:45:30.598Z,18.75
2018-12-14T10:47:58.562Z,18.90
2018-12-14T10:50:26.549Z,18.20
2018-12-14T10:52:54.499Z,17.40
2018-12-14T10:55:22.478Z,16.23
2018-12-14T10:57:50.687Z,18.90
2018-12-14T11:00:25.346Z,16.15
2018-12-14T11:02:53.293Z,15.28
2018-12-14T11:05:21.298Z,17.95
2018-12-14T11:07:49.261Z,17.42
2018-12-14T11:10:17.239Z,17.80
2018-12-14T11:12:45.197Z,16.85
2018-12-14T11:15:13.214Z,18.48
2018-12-14T11:17:41.161Z,17.35
2018-12-14T11:20:10.241Z,17.32
2018-12-14T11:22:38.233Z,18.07
2018-12-14T11:25:07.003Z,16.57
2018-12-14T11:27:34.994Z,16.48
2018-12-14T11:30:03.197Z,16.77
2018-12-14T11:32:31.112Z,17.07
2018-12-14T11:34:59.104Z,16.67
2018-12-14T11:37:27.097Z,16.85
2018-12-14T11:39:55.030Z,17.40
2018-12-14T11:42:23.010Z,17.62
2018-12-14T11:44:51.001Z,18.17
2018-12-14T11:47:18.976Z,18.70
2018-12-14T11:49:48.511Z,18.73
2018-12-14T11:52:16.637Z,18.87
2018-12-14T11:54:44.605Z,19.20
2018-12-14T11:57:12.574Z,20.85
2018-12-14T11:59:40.641Z,20.45
2018-12-14T12:02:08.614Z,21.00
2018-12-14T12:04:36.636Z,19.15
2018-12-14T12:07:04.642Z,20.43
2018-12-14T12:09:33.434Z,20.17
2018-12-14T12:12:01.613Z,20.77
2018-12-14T12:14:29.703Z,21.05
2018-12-14T12:16:57.738Z,19.77
2018-12-14T12:19:25.694Z,20.25
2018-12-14T12:21:53.840Z,18.25
2018-12-14T12:24:21.802Z,18.57
2018-12-14T12:26:49.826Z,17.92
2018-12-14T12:29:17.770Z,17.75
2018-12-14T12:31:45.735Z,18.20
2018-12-14T12:34:13.669Z,19.15
2018-12-14T12:36:41.649Z,17.87
2018-12-14T12:39:10.392Z,17.80
2018-12-14T12:41:40.557Z,16.00
2018-12-14T12:44:08.514Z,18.27
2018-12-14T12:46:36.472Z,18.10
2018-12-14T12:49:04.433Z,17.60
2018-12-14T12:51:32.399Z,20.27
2018-12-14T12:54:00.322Z,16.57
2018-12-14T12:56:28.389Z,16.87
2018-12-14T12:58:56.399Z,19.20
2018-12-14T13:01:25.526Z,18.65
2018-12-14T13:03:53.509Z,17.65
2018-12-14T13:06:21.422Z,19.98
2018-12-14T13:08:49.384Z,16.62
2018-12-14T13:11:17.338Z,15.43
2018-12-14T13:13:45.299Z,15.08
2018-12-14T13:16:13.218Z,16.15
2018-12-14T13:18:41.217Z,16.10
2018-12-14T13:21:09.163Z,14.85
2018-12-14T13:23:37.137Z,16.82
2018-12-14T13:26:05.078Z,16.57
2018-12-14T13:28:33.316Z,15.90
2018-12-14T13:31:01.273Z,14.40
2018-12-14T13:33:29.275Z,15.58
2018-12-14T13:35:57.256Z,16.27
2018-12-14T13:38:25.229Z,15.78
2018-12-14T13:40:53.191Z,17.00
2018-12-14T13:43:21.111Z,15.28
2018-12-14T13:45:49.100Z,15.30
2018-12-14T13:48:17.054Z,16.17
2018-12-14T13:50:45.021Z,15.55
2018-12-14T13:53:13.023Z,15.88
2018-12-14T13:55:40.966Z,17.00
2018-12-14T13:58:08.892Z,16.20
2018-12-14T14:00:36.899Z,17.95
2018-12-14T14:03:05.076Z,17.62
2018-12-14T14:05:33.042Z,16.30
2018-12-14T14:08:01.080Z,16.17
2018-12-14T14:10:29.020Z,16.40
2018-12-14T14:12:57.026Z,16.00
2018-12-14T14:15:25.076Z,16.27
2018-12-14T14:17:53.016Z,16.97
2018-12-14T14:20:21.034Z,19.23
2018-12-14T14:22:49.084Z,16.75
2018-12-14T14:25:17.690Z,18.45
2018-12-14T14:27:45.864Z,18.20
2018-12-14T14:30:13.776Z,19.30
2018-12-14T14:32:41.673Z,19.67
2018-12-14T14:35:10.668Z,19.52
2018-12-14T14:37:38.598Z,20.15
2018-12-14T14:40:06.578Z,20.88
2018-12-14T14:42:34.488Z,19.27
2018-12-14T14:45:02.507Z,20.17
2018-12-14T14:47:30.523Z,18.17
2018-12-14T14:49:58.423Z,21.30
2018-12-14T14:52:26.397Z,17.98
2018-12-14T14:54:54.407Z,18.10
2018-12-14T14:57:23.365Z,17.35
2018-12-14T14:59:51.543Z,19.82
2018-12-14T15:02:19.443Z,18.35
2018-12-14T15:04:47.323Z,18.12
2018-12-14T15:07:15.247Z,19.75
2018-12-14T15:09:43.102Z,19.85
2018-12-14T15:12:11.064Z,19.32
2018-12-14T15:14:38.967Z,18.80
2018-12-14T15:17:06.972Z,20.20
2018-12-14T15:19:34.850Z,23.80
2018-12-14T15:22:04.719Z,20.48
2018-12-14T15:24:32.654Z,20.77
2018-12-14T15:27:00.572Z,20.75
2018-12-14T15:29:28.449Z,20.23
2018-12-14T15:31:56.584Z,20.62
2018-12-14T15:34:24.460Z,21.57
2018-12-14T15:36:52.942Z,19.87
2018-12-14T15:39:20.841Z,20.92
2018-12-14T15:41:48.714Z,21.80
2018-12-14T15:44:16.702Z,22.25
2018-12-14T15:46:44.538Z,23.47
2018-12-14T15:49:12.435Z,21.27
2018-12-14T15:51:40.308Z,21.52
2018-12-14T15:54:15.595Z,20.12
2018-12-14T15:56:43.508Z,19.42
2018-12-14T15:59:11.404Z,16.25
2018-12-14T16:01:39.379Z,16.90
2018-12-14T16:04:07.293Z,16.60
2018-12-14T16:06:35.180Z,16.65
2018-12-14T16:09:04.532Z,14.98
2018-12-14T16:11:32.433Z,16.05
2018-12-14T16:14:00.463Z,17.07
2018-12-14T16:16:28.328Z,16.85
2018-12-14T16:18:56.214Z,16.32
2018-12-14T16:21:24.117Z,16.82
2018-12-14T16:23:52.099Z,17.82
2018-12-14T16:26:20.004Z,19.70
2018-12-14T16:28:47.921Z,16.50
2018-12-14T16:31:15.910Z,19.73
2018-12-14T16:33:43.800Z,19.80
2018-12-14T16:36:11.705Z,21.23
2018-12-14T16:38:39.630Z,19.42
2018-12-14T16:41:07.526Z,19.15
2018-12-14T16:43:36.033Z,18.95
2018-12-14T16:46:03.915Z,18.45
2018-12-14T16:48:31.801Z,17.98
2018-12-14T16:50:59.700Z,20.65
2018-12-14T16:53:27.612Z,18.05
2018-12-14T16:55:55.524Z,18.27
2018-12-14T16:58:23.465Z,17.00
2018-12-14T17:00:51.490Z,19.77
2018-12-14T17:03:19.411Z,19.50
2018-12-14T17:05:47.361Z,18.98
2018-12-14T17:08:15.251Z,18.80
2018-12-14T17:10:43.139Z,18.30
2018-12-14T17:13:11.035Z,17.75
2018-12-14T17:15:38.954Z,19.23
2018-12-14T17:18:06.815Z,20.77
2018-12-14T17:20:34.686Z,18.07
2018-12-14T17:23:02.606Z,18.40
2018-12-14T17:25:30.515Z,18.98
2018-12-14T17:27:58.422Z,16.37
2018-12-14T17:30:27.511Z,16.37
2018-12-14T17:32:55.574Z,15.25
2018-12-14T17:35:23.447Z,16.25
2018-12-14T17:37:51.342Z,14.83
2018-12-14T17:40:19.217Z,16.27
2018-12-14T17:42:49.168Z,15.20
2018-12-14T17:45:17.095Z,14.65
2018-12-14T17:47:44.992Z,16.05
2018-12-14T17:50:12.894Z,14.68
2018-12-14T17:52:40.736Z,14.60
2018-12-14T17:55:08.664Z,17.10
2018-12-14T17:57:36.516Z,14.75
2018-12-14T18:00:04.877Z,15.68
2018-12-14T18:02:32.722Z,16.07
2018-12-14T18:05:00.686Z,12.05
2018-12-14T18:07:28.548Z,16.02
2018-12-14T18:09:56.427Z,16.52
2018-12-14T18:12:24.284Z,15.75
2018-12-14T18:14:52.174Z,14.30
2018-12-14T18:17:20.131Z,14.73
2018-12-14T18:19:48.061Z,15.40
2018-12-14T18:22:16.638Z,14.00
2018-12-14T18:24:44.797Z,15.93
2018-12-14T18:27:12.752Z,14.28
2018-12-14T18:29:40.618Z,14.45
2018-12-14T18:32:08.533Z,13.62
2018-12-14T18:34:36.447Z,16.25
2018-12-14T18:37:04.349Z,16.40
2018-12-14T18:39:32.250Z,19.48
2018-12-14T18:42:00.134Z,15.32
2018-12-14T18:44:27.986Z,14.93
2018-12-14T18:46:55.859Z,16.48
2018-12-14T18:49:23.725Z,17.25
2018-12-14T18:51:51.619Z,17.82
2018-12-14T18:54:19.495Z,16.95
2018-12-14T18:56:47.411Z,15.13
2018-12-14T18:59:15.420Z,17.30
2018-12-14T19:01:43.296Z,14.73
2018-12-14T19:04:11.166Z,15.35
2018-12-14T19:06:39.068Z,14.70
2018-12-14T19:09:06.980Z,15.78
2018-12-14T19:11:36.943Z,14.18
2018-12-14T19:14:04.823Z,14.58
2018-12-14T19:16:32.745Z,14.73
2018-12-14T19:19:00.635Z,14.98
2018-12-14T19:21:28.610Z,14.00
2018-12-14T19:23:56.578Z,14.23
2018-12-14T19:26:24.475Z,14.55
2018-12-14T19:29:02.060Z,15.13
2018-12-14T19:31:30.132Z,15.85
2018-12-14T19:33:58.014Z,15.75
2018-12-14T19:36:25.921Z,14.93
2018-12-14T19:38:53.812Z,15.25
2018-12-14T19:41:21.716Z,15.95
2018-12-14T19:43:49.638Z,16.82
2018-12-14T19:46:17.538Z,16.00
2018-12-14T19:48:45.559Z,15.72
2018-12-14T19:51:13.418Z,15.20
2018-12-14T19:53:41.354Z,15.83
2018-12-14T19:56:09.315Z,15.75
2018-12-14T19:58:37.176Z,14.20
2018-12-14T20:01:05.172Z,16.27
2018-12-14T20:03:34.139Z,15.35
2018-12-14T20:06:02.017Z,15.32
2018-12-14T20:08:30.180Z,16.30
2018-12-14T20:10:58.237Z,14.95
2018-12-14T20:13:26.151Z,14.43
2018-12-14T20:15:57.507Z,14.20
2018-12-14T20:18:23.998Z,16.60
2018-12-14T20:20:51.900Z,16.05
2018-12-14T20:23:19.758Z,16.12
2018-12-14T20:25:47.675Z,16.35
2018-12-14T20:28:15.537Z,16.77
2018-12-14T20:30:43.466Z,15.63
2018-12-14T20:33:11.343Z,17.67
2018-12-14T20:35:39.255Z,15.95
2018-12-14T20:38:07.413Z,15.13
2018-12-14T20:40:35.322Z,16.02
2018-12-14T20:43:03.207Z,16.10
2018-12-14T20:45:31.126Z,15.32
2018-12-14T20:47:59.040Z,16.00
2018-12-14T20:50:26.928Z,15.08
2018-12-14T20:52:54.834Z,14.93
2018-12-14T20:55:22.754Z,16.12
2018-12-14T20:57:50.651Z,15.40
2018-12-14T21:00:18.538Z,16.42
2018-12-14T21:02:47.609Z,16.30
2018-12-14T21:05:15.531Z,16.52
2018-12-14T21:07:43.438Z,15.53
2018-12-14T21:10:11.342Z,16.52
2018-12-14T21:12:39.250Z,17.27
2018-12-14T21:15:07.771Z,15.68
2018-12-14T21:17:35.688Z,14.07
2018-12-14T21:20:04.047Z,16.77
2018-12-14T21:22:31.965Z,17.10
2018-12-14T21:24:59.810Z,15.55
2018-12-14T21:27:27.697Z,14.13
2018-12-14T21:29:55.640Z,16.87
2018-12-14T21:32:31.484Z,18.55
2018-12-14T21:34:59.328Z,15.93
2018-12-14T21:37:27.271Z,16.42
2018-12-14T21:39:55.150Z,18.17
2018-12-14T21:42:23.055Z,18.02
2018-12-14T21:44:50.986Z,17.00
2018-12-14T21:47:18.863Z,15.55
2018-12-14T21:49:46.789Z,15.83
2018-12-14T21:52:14.622Z,17.30
2018-12-14T21:54:42.512Z,19.05
2018-12-14T21:57:10.455Z,19.05
2018-12-14T21:59:38.341Z,17.57
2018-12-14T22:02:06.346Z,16.48
2018-12-14T22:04:34.279Z,15.88
2018-12-14T22:07:02.123Z,20.00
2018-12-14T22:09:31.148Z,17.27
2018-12-14T22:11:59.059Z,17.50
2018-12-14T22:14:26.930Z,17.90
2018-12-14T22:16:54.799Z,17.95
2018-12-14T22:19:22.667Z,18.98
2018-12-14T22:21:50.534Z,17.37
2018-12-14T22:24:18.441Z,16.55
2018-12-14T22:26:46.344Z,17.65
2018-12-14T22:29:14.270Z,18.05
2018-12-14T22:31:42.202Z,18.30
2018-12-14T22:34:10.213Z,18.23
2018-12-14T22:36:38.179Z,17.65
2018-12-14T22:39:06.516Z,18.65
2018-12-14T22:41:35.668Z,19.45
2018-12-14T22:44:03.659Z,18.57
2018-12-14T22:46:31.706Z,19.07
2018-12-14T22:48:59.682Z,17.42
2018-12-14T22:51:27.637Z,19.30
2018-12-14T22:53:55.548Z,19.70
2018-12-14T22:56:23.457Z,18.55
2018-12-14T22:58:51.376Z,18.70
2018-12-14T23:01:19.371Z,17.87
2018-12-14T23:03:47.348Z,18.50
2018-12-14T23:06:15.369Z,18.02
2018-12-14T23:08:44.773Z,19.15
2018-12-14T23:11:12.732Z,17.70
2018-12-14T23:13:40.711Z,17.73
2018-12-14T23:16:08.782Z,16.77
2018-12-14T23:18:36.730Z,16.90
2018-12-14T23:21:04.635Z,19.15
2018-12-14T23:23:32.647Z,16.50
2018-12-14T23:26:00.650Z,18.85
2018-12-14T23:28:28.602Z,19.62
2018-12-14T23:30:57.622Z,17.30
2018-12-14T23:33:25.634Z,19.85
2018-12-14T23:35:53.653Z,19.65
2018-12-14T23:38:21.614Z,20.08
2018-12-14T23:40:49.649Z,18.70
2018-12-14T23:43:17.709Z,20.02
2018-12-14T23:45:45.733Z,20.00
2018-12-14T23:48:13.738Z,18.30
2018-12-14T23:50:41.690Z,19.05
2018-12-14T23:53:09.634Z,19.98
2018-12-14T23:55:37.555Z,20.48
2018-12-14T23:58:05.507Z,19.65
